sensor_id;sensor_type;location;lat;lon;timestamp;temperature;humidity
7032;DHT22;3557;48.880;8.328;2022-07-03T00:00:03;17.50;99.90
7032;DHT22;3557;48.880;8.328;2022-07-03T00:02:38;17.50;99.90
7032;DHT22;3557;48.880;8.328;2022-07-03T00:05:06;17.40;99.90
7032;DHT22;3557;48.880;8.328;2022-07-03T00:07:34;17.40;99.90
7032;DHT22;3557;48.880;8.328;2022-07-03T00:10:05;17.40;99.90
7032;DHT22;3557;48.880;8.328;2022-07-03T00:15:00;17.30;99.90
7032;DHT22;3557;48.880;8.328;2022-07-03T00:17:27;17.30;99.90
7032;DHT22;3557;48.880;8.328;2022-07-03T00:19:56;17.20;99.90
7032;DHT22;3557;48.880;8.328;2022-07-03T00:22:25;17.20;99.90
7032;DHT22;3557;48.880;8.328;2022-07-03T00:24:54;17.20;99.90
7032;DHT22;3557;48.880;8.328;2022-07-03T00:27:27;17.10;99.90
7032;DHT22;3557;48.880;8.328;2022-07-03T00:29:56;17.00;99.90
7032;DHT22;3557;48.880;8.328;2022-07-03T00:32:26;17.00;99.90
7032;DHT22;3557;48.880;8.328;2022-07-03T00:34:56;17.00;99.90
7032;DHT22;3557;48.880;8.328;2022-07-03T00:37:24;16.90;99.90
7032;DHT22;3557;48.880;8.328;2022-07-03T00:39:51;16.90;99.90
7032;DHT22;3557;48.880;8.328;2022-07-03T00:44:48;16.70;99.90
7032;DHT22;3557;48.880;8.328;2022-07-03T00:47:18;16.70;99.90
7032;DHT22;3557;48.880;8.328;2022-07-03T00:49:47;16.70;99.90
7032;DHT22;3557;48.880;8.328;2022-07-03T00:52:19;16.70;99.90
7032;DHT22;3557;48.880;8.328;2022-07-03T00:54:54;16.70;99.90
7032;DHT22;3557;48.880;8.328;2022-07-03T00:59:51;16.70;99.90
7032;DHT22;3557;48.880;8.328;2022-07-03T01:02:27;16.60;99.90
7032;DHT22;3557;48.880;8.328;2022-07-03T01:05:02;16.50;99.90
7032;DHT22;3557;48.880;8.328;2022-07-03T01:07:44;16.60;99.90
7032;DHT22;3557;48.880;8.328;2022-07-03T01:10:22;16.60;99.90
7032;DHT22;3557;48.880;8.328;2022-07-03T01:13:00;16.60;99.90
7032;DHT22;3557;48.880;8.328;2022-07-03T01:15:44;16.70;99.90
7032;DHT22;3557;48.880;8.328;2022-07-03T01:18:27;16.70;99.90
7032;DHT22;3557;48.880;8.328;2022-07-03T01:21:06;16.70;99.90
7032;DHT22;3557;48.880;8.328;2022-07-03T01:23:54;16.70;99.90
7032;DHT22;3557;48.880;8.328;2022-07-03T01:26:27;16.70;99.90
7032;DHT22;3557;48.880;8.328;2022-07-03T01:28:59;16.60;99.90
7032;DHT22;3557;48.880;8.328;2022-07-03T01:31:31;16.60;99.90
7032;DHT22;3557;48.880;8.328;2022-07-03T01:33:58;16.50;99.90
7032;DHT22;3557;48.880;8.328;2022-07-03T01:36:29;16.40;99.90
7032;DHT22;3557;48.880;8.328;2022-07-03T01:38:59;16.30;99.90
7032;DHT22;3557;48.880;8.328;2022-07-03T01:41:30;16.20;99.90
7032;DHT22;3557;48.880;8.328;2022-07-03T01:43:59;16.20;99.90
7032;DHT22;3557;48.880;8.328;2022-07-03T01:46:30;16.20;99.90
7032;DHT22;3557;48.880;8.328;2022-07-03T01:48:59;16.20;99.90
7032;DHT22;3557;48.880;8.328;2022-07-03T01:51:27;16.20;99.90
7032;DHT22;3557;48.880;8.328;2022-07-03T01:56:23;16.10;99.90
7032;DHT22;3557;48.880;8.328;2022-07-03T01:58:53;16.00;99.90
7032;DHT22;3557;48.880;8.328;2022-07-03T02:01:21;16.00;99.90
7032;DHT22;3557;48.880;8.328;2022-07-03T02:04:03;16.00;99.90
7032;DHT22;3557;48.880;8.328;2022-07-03T02:06:40;15.90;99.90
7032;DHT22;3557;48.880;8.328;2022-07-03T02:09:09;15.90;99.90
7032;DHT22;3557;48.880;8.328;2022-07-03T02:11:40;15.80;99.90
7032;DHT22;3557;48.880;8.328;2022-07-03T02:14:13;15.80;99.90
7032;DHT22;3557;48.880;8.328;2022-07-03T02:16:50;15.80;99.90
7032;DHT22;3557;48.880;8.328;2022-07-03T02:19:31;15.80;99.90
7032;DHT22;3557;48.880;8.328;2022-07-03T02:22:07;15.80;99.90
7032;DHT22;3557;48.880;8.328;2022-07-03T02:24:41;15.80;99.90
7032;DHT22;3557;48.880;8.328;2022-07-03T02:27:15;15.70;99.90
7032;DHT22;3557;48.880;8.328;2022-07-03T02:29:50;15.70;99.90
7032;DHT22;3557;48.880;8.328;2022-07-03T02:32:22;15.70;99.90
7032;DHT22;3557;48.880;8.328;2022-07-03T02:34:56;15.60;99.90
7032;DHT22;3557;48.880;8.328;2022-07-03T02:37:30;15.50;99.90
7032;DHT22;3557;48.880;8.328;2022-07-03T02:42:37;15.40;99.90
7032;DHT22;3557;48.880;8.328;2022-07-03T02:45:09;15.30;99.90
7032;DHT22;3557;48.880;8.328;2022-07-03T02:47:45;15.30;99.90
7032;DHT22;3557;48.880;8.328;2022-07-03T02:50:18;15.30;99.90
7032;DHT22;3557;48.880;8.328;2022-07-03T02:53:08;15.40;99.90
7032;DHT22;3557;48.880;8.328;2022-07-03T02:55:42;15.40;99.90
7032;DHT22;3557;48.880;8.328;2022-07-03T02:58:27;15.40;99.90
7032;DHT22;3557;48.880;8.328;2022-07-03T03:03:37;15.30;99.90
7032;DHT22;3557;48.880;8.328;2022-07-03T03:06:13;15.40;99.90
7032;DHT22;3557;48.880;8.328;2022-07-03T03:08:43;15.40;99.90
7032;DHT22;3557;48.880;8.328;2022-07-03T03:11:23;15.40;99.90
7032;DHT22;3557;48.880;8.328;2022-07-03T03:14:00;15.30;99.90
7032;DHT22;3557;48.880;8.328;2022-07-03T03:16:30;15.30;99.90
7032;DHT22;3557;48.880;8.328;2022-07-03T03:18:57;15.20;99.90
7032;DHT22;3557;48.880;8.328;2022-07-03T03:21:26;15.10;99.90
7032;DHT22;3557;48.880;8.328;2022-07-03T03:23:54;15.00;99.90
7032;DHT22;3557;48.880;8.328;2022-07-03T03:26:23;15.00;99.90
7032;DHT22;3557;48.880;8.328;2022-07-03T03:28:51;15.00;99.90
7032;DHT22;3557;48.880;8.328;2022-07-03T03:31:21;15.10;99.90
7032;DHT22;3557;48.880;8.328;2022-07-03T03:33:50;15.10;99.90
7032;DHT22;3557;48.880;8.328;2022-07-03T03:36:19;15.00;99.90
7032;DHT22;3557;48.880;8.328;2022-07-03T03:38:48;15.10;99.90
7032;DHT22;3557;48.880;8.328;2022-07-03T03:41:15;15.20;99.90
7032;DHT22;3557;48.880;8.328;2022-07-03T03:43:43;15.10;99.90
7032;DHT22;3557;48.880;8.328;2022-07-03T03:48:37;15.10;99.90
7032;DHT22;3557;48.880;8.328;2022-07-03T03:51:06;15.10;99.90
7032;DHT22;3557;48.880;8.328;2022-07-03T03:56:02;15.20;99.90
7032;DHT22;3557;48.880;8.328;2022-07-03T03:58:33;15.10;99.90
7032;DHT22;3557;48.880;8.328;2022-07-03T04:01:03;15.20;99.90
7032;DHT22;3557;48.880;8.328;2022-07-03T04:03:31;15.20;99.90
7032;DHT22;3557;48.880;8.328;2022-07-03T04:08:28;15.30;99.90
7032;DHT22;3557;48.880;8.328;2022-07-03T04:10:56;15.30;99.90
7032;DHT22;3557;48.880;8.328;2022-07-03T04:13:23;15.30;99.90
7032;DHT22;3557;48.880;8.328;2022-07-03T04:15:52;15.40;99.90
7032;DHT22;3557;48.880;8.328;2022-07-03T04:18:20;15.40;99.90
7032;DHT22;3557;48.880;8.328;2022-07-03T04:20:47;15.50;99.90
7032;DHT22;3557;48.880;8.328;2022-07-03T04:25:43;15.60;99.90
7032;DHT22;3557;48.880;8.328;2022-07-03T04:28:10;15.80;99.90
7032;DHT22;3557;48.880;8.328;2022-07-03T04:30:37;15.80;99.90
7032;DHT22;3557;48.880;8.328;2022-07-03T04:33:04;15.90;99.90
7032;DHT22;3557;48.880;8.328;2022-07-03T04:35:31;15.90;99.90
7032;DHT22;3557;48.880;8.328;2022-07-03T04:37:58;16.10;99.90
7032;DHT22;3557;48.880;8.328;2022-07-03T04:42:54;16.60;99.90
7032;DHT22;3557;48.880;8.328;2022-07-03T04:45:21;17.00;99.90
7032;DHT22;3557;48.880;8.328;2022-07-03T04:47:48;17.30;99.90
7032;DHT22;3557;48.880;8.328;2022-07-03T04:50:15;17.70;99.90
7032;DHT22;3557;48.880;8.328;2022-07-03T04:52:42;18.20;99.90
7032;DHT22;3557;48.880;8.328;2022-07-03T04:55:09;18.60;99.90
7032;DHT22;3557;48.880;8.328;2022-07-03T05:00:06;19.50;99.90
7032;DHT22;3557;48.880;8.328;2022-07-03T05:02:33;19.70;99.90
7032;DHT22;3557;48.880;8.328;2022-07-03T05:05:00;20.10;99.90
7032;DHT22;3557;48.880;8.328;2022-07-03T05:07:28;20.20;99.90
7032;DHT22;3557;48.880;8.328;2022-07-03T05:09:58;20.40;99.90
7032;DHT22;3557;48.880;8.328;2022-07-03T05:12:25;20.50;99.90
7032;DHT22;3557;48.880;8.328;2022-07-03T05:14:53;20.80;99.90
7032;DHT22;3557;48.880;8.328;2022-07-03T05:17:21;21.10;99.90
7032;DHT22;3557;48.880;8.328;2022-07-03T05:19:48;21.30;99.90
7032;DHT22;3557;48.880;8.328;2022-07-03T05:22:35;21.60;99.90
7032;DHT22;3557;48.880;8.328;2022-07-03T05:25:03;21.70;99.90
7032;DHT22;3557;48.880;8.328;2022-07-03T05:27:30;22.00;99.90
7032;DHT22;3557;48.880;8.328;2022-07-03T05:29:57;22.20;99.90
7032;DHT22;3557;48.880;8.328;2022-07-03T05:32:26;22.40;99.90
7032;DHT22;3557;48.880;8.328;2022-07-03T05:39:47;22.60;99.90
7032;DHT22;3557;48.880;8.328;2022-07-03T05:42:14;22.40;99.90
7032;DHT22;3557;48.880;8.328;2022-07-03T05:47:08;22.20;99.90
7032;DHT22;3557;48.880;8.328;2022-07-03T05:49:37;22.30;99.90
7032;DHT22;3557;48.880;8.328;2022-07-03T05:52:04;22.30;99.90
7032;DHT22;3557;48.880;8.328;2022-07-03T05:54:31;22.10;99.90
7032;DHT22;3557;48.880;8.328;2022-07-03T05:56:58;21.80;99.90
7032;DHT22;3557;48.880;8.328;2022-07-03T06:01:52;21.70;99.90
7032;DHT22;3557;48.880;8.328;2022-07-03T06:04:19;21.70;99.90
7032;DHT22;3557;48.880;8.328;2022-07-03T06:06:47;22.00;99.90
7032;DHT22;3557;48.880;8.328;2022-07-03T06:09:15;22.00;99.90
7032;DHT22;3557;48.880;8.328;2022-07-03T06:11:43;22.10;99.90
7032;DHT22;3557;48.880;8.328;2022-07-03T06:14:10;22.30;99.90
7032;DHT22;3557;48.880;8.328;2022-07-03T06:19:04;22.60;99.90
7032;DHT22;3557;48.880;8.328;2022-07-03T06:24:00;23.10;99.90
7032;DHT22;3557;48.880;8.328;2022-07-03T06:26:27;23.40;99.90
7032;DHT22;3557;48.880;8.328;2022-07-03T06:31:22;23.60;99.90
7032;DHT22;3557;48.880;8.328;2022-07-03T06:33:48;23.70;99.90
7032;DHT22;3557;48.880;8.328;2022-07-03T06:36:15;23.70;99.90
7032;DHT22;3557;48.880;8.328;2022-07-03T06:41:11;24.10;99.90
7032;DHT22;3557;48.880;8.328;2022-07-03T06:43:39;24.20;99.90
7032;DHT22;3557;48.880;8.328;2022-07-03T06:46:06;24.30;99.90
7032;DHT22;3557;48.880;8.328;2022-07-03T06:51:00;24.40;99.90
7032;DHT22;3557;48.880;8.328;2022-07-03T06:58:23;24.30;99.90
7032;DHT22;3557;48.880;8.328;2022-07-03T07:03:17;24.10;99.90
7032;DHT22;3557;48.880;8.328;2022-07-03T07:08:11;24.10;99.90
7032;DHT22;3557;48.880;8.328;2022-07-03T07:13:05;24.40;99.90
7032;DHT22;3557;48.880;8.328;2022-07-03T07:15:34;24.50;99.90
7032;DHT22;3557;48.880;8.328;2022-07-03T07:20:28;24.90;99.90
7032;DHT22;3557;48.880;8.328;2022-07-03T07:30:17;25.40;99.90
7032;DHT22;3557;48.880;8.328;2022-07-03T07:32:45;25.50;99.90
7032;DHT22;3557;48.880;8.328;2022-07-03T07:40:08;25.80;97.20
7032;DHT22;3557;48.880;8.328;2022-07-03T07:42:35;26.00;98.50
7032;DHT22;3557;48.880;8.328;2022-07-03T07:47:30;26.10;95.00
7032;DHT22;3557;48.880;8.328;2022-07-03T07:49:58;26.00;92.90
7032;DHT22;3557;48.880;8.328;2022-07-03T07:52:25;25.80;91.80
7032;DHT22;3557;48.880;8.328;2022-07-03T07:54:52;25.70;92.50
7032;DHT22;3557;48.880;8.328;2022-07-03T07:59:46;26.40;91.70
7032;DHT22;3557;48.880;8.328;2022-07-03T08:05:00;27.00;84.20
7032;DHT22;3557;48.880;8.328;2022-07-03T08:07:44;26.90;80.10
7032;DHT22;3557;48.880;8.328;2022-07-03T08:10:11;26.30;82.10
7032;DHT22;3557;48.880;8.328;2022-07-03T08:15:06;26.00;79.40
7032;DHT22;3557;48.880;8.328;2022-07-03T08:17:33;26.20;86.10
7032;DHT22;3557;48.880;8.328;2022-07-03T08:20:02;26.60;81.40
7032;DHT22;3557;48.880;8.328;2022-07-03T08:22:29;26.70;83.40
7032;DHT22;3557;48.880;8.328;2022-07-03T08:32:18;26.50;84.00
7032;DHT22;3557;48.880;8.328;2022-07-03T08:37:14;26.90;80.10
7032;DHT22;3557;48.880;8.328;2022-07-03T08:42:11;27.30;78.80
7032;DHT22;3557;48.880;8.328;2022-07-03T08:44:39;27.10;78.20
7032;DHT22;3557;48.880;8.328;2022-07-03T08:47:07;27.00;80.10
7032;DHT22;3557;48.880;8.328;2022-07-03T08:54:34;27.10;76.00
7032;DHT22;3557;48.880;8.328;2022-07-03T08:57:01;27.20;75.80
7032;DHT22;3557;48.880;8.328;2022-07-03T08:59:32;27.50;74.70
7032;DHT22;3557;48.880;8.328;2022-07-03T09:02:01;27.40;71.50
7032;DHT22;3557;48.880;8.328;2022-07-03T09:06:57;27.70;74.30
7032;DHT22;3557;48.880;8.328;2022-07-03T09:09:26;28.30;74.70
7032;DHT22;3557;48.880;8.328;2022-07-03T09:11:54;28.80;68.40
7032;DHT22;3557;48.880;8.328;2022-07-03T09:14:21;29.20;70.10
7032;DHT22;3557;48.880;8.328;2022-07-03T09:16:48;29.60;68.10
7032;DHT22;3557;48.880;8.328;2022-07-03T09:19:40;30.00;66.00
7032;DHT22;3557;48.880;8.328;2022-07-03T09:22:21;30.10;63.90
7032;DHT22;3557;48.880;8.328;2022-07-03T09:24:51;30.30;63.40
7032;DHT22;3557;48.880;8.328;2022-07-03T09:27:20;30.60;63.00
7032;DHT22;3557;48.880;8.328;2022-07-03T09:29:57;30.80;62.00
7032;DHT22;3557;48.880;8.328;2022-07-03T09:32:26;30.30;61.70
7032;DHT22;3557;48.880;8.328;2022-07-03T09:35:16;30.60;60.50
7032;DHT22;3557;48.880;8.328;2022-07-03T09:37:52;30.30;60.40
7032;DHT22;3557;48.880;8.328;2022-07-03T09:40:21;30.50;59.80
7032;DHT22;3557;48.880;8.328;2022-07-03T09:43:02;30.60;58.90
7032;DHT22;3557;48.880;8.328;2022-07-03T09:45:50;30.80;58.00
7032;DHT22;3557;48.880;8.328;2022-07-03T09:48:22;30.40;56.90
7032;DHT22;3557;48.880;8.328;2022-07-03T09:51:11;30.70;59.40
7032;DHT22;3557;48.880;8.328;2022-07-03T09:53:47;30.90;57.90
7032;DHT22;3557;48.880;8.328;2022-07-03T09:56:17;31.20;53.50
7032;DHT22;3557;48.880;8.328;2022-07-03T09:59:15;31.30;54.80
7032;DHT22;3557;48.880;8.328;2022-07-03T10:01:44;30.60;55.80
7032;DHT22;3557;48.880;8.328;2022-07-03T10:04:15;30.70;55.50
7032;DHT22;3557;48.880;8.328;2022-07-03T10:06:53;31.20;54.90
7032;DHT22;3557;48.880;8.328;2022-07-03T10:09:22;31.30;54.60
7032;DHT22;3557;48.880;8.328;2022-07-03T10:11:51;31.00;53.00
7032;DHT22;3557;48.880;8.328;2022-07-03T10:14:20;31.10;54.00
7032;DHT22;3557;48.880;8.328;2022-07-03T10:16:49;31.20;55.30
7032;DHT22;3557;48.880;8.328;2022-07-03T10:19:18;31.30;55.80
7032;DHT22;3557;48.880;8.328;2022-07-03T10:21:52;31.50;55.00
7032;DHT22;3557;48.880;8.328;2022-07-03T10:24:22;31.80;55.70
7032;DHT22;3557;48.880;8.328;2022-07-03T10:26:50;31.70;53.40
7032;DHT22;3557;48.880;8.328;2022-07-03T10:29:17;31.10;54.20
7032;DHT22;3557;48.880;8.328;2022-07-03T10:31:47;31.10;54.20
7032;DHT22;3557;48.880;8.328;2022-07-03T10:34:19;31.20;53.40
7032;DHT22;3557;48.880;8.328;2022-07-03T10:36:50;31.50;53.40
7032;DHT22;3557;48.880;8.328;2022-07-03T10:39:32;31.90;53.10
7032;DHT22;3557;48.880;8.328;2022-07-03T10:42:05;32.00;53.60
7032;DHT22;3557;48.880;8.328;2022-07-03T10:45:04;32.10;52.50
7032;DHT22;3557;48.880;8.328;2022-07-03T10:47:46;32.00;52.80
7032;DHT22;3557;48.880;8.328;2022-07-03T10:50:15;32.30;50.90
7032;DHT22;3557;48.880;8.328;2022-07-03T10:52:44;32.10;49.70
7032;DHT22;3557;48.880;8.328;2022-07-03T10:55:13;32.20;50.20
7032;DHT22;3557;48.880;8.328;2022-07-03T10:57:41;32.10;51.00
7032;DHT22;3557;48.880;8.328;2022-07-03T11:00:16;32.50;50.60
7032;DHT22;3557;48.880;8.328;2022-07-03T11:02:46;32.30;49.80
7032;DHT22;3557;48.880;8.328;2022-07-03T11:05:16;32.30;50.70
7032;DHT22;3557;48.880;8.328;2022-07-03T11:08:08;32.70;51.40
7032;DHT22;3557;48.880;8.328;2022-07-03T11:10:38;32.40;50.60
7032;DHT22;3557;48.880;8.328;2022-07-03T11:13:11;32.70;50.40
7032;DHT22;3557;48.880;8.328;2022-07-03T11:15:46;33.10;49.80
7032;DHT22;3557;48.880;8.328;2022-07-03T11:18:19;32.60;48.70
7032;DHT22;3557;48.880;8.328;2022-07-03T11:21:20;32.40;48.30
7032;DHT22;3557;48.880;8.328;2022-07-03T11:24:24;32.70;50.70
7032;DHT22;3557;48.880;8.328;2022-07-03T11:27:20;32.70;48.70
7032;DHT22;3557;48.880;8.328;2022-07-03T11:29:58;32.80;50.80
7032;DHT22;3557;48.880;8.328;2022-07-03T11:32:45;32.40;49.30
7032;DHT22;3557;48.880;8.328;2022-07-03T11:35:49;32.40;48.00
7032;DHT22;3557;48.880;8.328;2022-07-03T11:38:29;32.60;51.90
7032;DHT22;3557;48.880;8.328;2022-07-03T11:40:58;32.80;50.90
7032;DHT22;3557;48.880;8.328;2022-07-03T11:43:27;32.80;48.70
7032;DHT22;3557;48.880;8.328;2022-07-03T11:48:23;32.60;49.90
7032;DHT22;3557;48.880;8.328;2022-07-03T11:53:23;31.90;49.30
7032;DHT22;3557;48.880;8.328;2022-07-03T11:55:54;31.60;49.60
7032;DHT22;3557;48.880;8.328;2022-07-03T11:58:24;31.20;51.60
7032;DHT22;3557;48.880;8.328;2022-07-03T12:00:53;31.60;52.50
7032;DHT22;3557;48.880;8.328;2022-07-03T12:03:22;31.90;48.90
7032;DHT22;3557;48.880;8.328;2022-07-03T12:05:56;32.40;50.80
7032;DHT22;3557;48.880;8.328;2022-07-03T12:08:26;33.20;47.50
7032;DHT22;3557;48.880;8.328;2022-07-03T12:11:02;32.90;48.30
7032;DHT22;3557;48.880;8.328;2022-07-03T12:16:03;32.50;48.30
7032;DHT22;3557;48.880;8.328;2022-07-03T12:18:43;32.50;49.30
7032;DHT22;3557;48.880;8.328;2022-07-03T12:21:11;32.50;48.80
7032;DHT22;3557;48.880;8.328;2022-07-03T12:23:46;31.80;49.40
7032;DHT22;3557;48.880;8.328;2022-07-03T12:26:26;31.20;50.80
7032;DHT22;3557;48.880;8.328;2022-07-03T12:28:56;31.20;49.80
7032;DHT22;3557;48.880;8.328;2022-07-03T12:31:23;31.40;50.80
7032;DHT22;3557;48.880;8.328;2022-07-03T12:33:51;31.40;52.10
7032;DHT22;3557;48.880;8.328;2022-07-03T12:36:18;32.10;50.50
7032;DHT22;3557;48.880;8.328;2022-07-03T12:38:47;31.80;49.80
7032;DHT22;3557;48.880;8.328;2022-07-03T12:41:16;31.60;51.00
7032;DHT22;3557;48.880;8.328;2022-07-03T12:43:46;31.90;48.90
7032;DHT22;3557;48.880;8.328;2022-07-03T12:46:22;32.20;49.00
7032;DHT22;3557;48.880;8.328;2022-07-03T12:48:52;32.10;50.50
7032;DHT22;3557;48.880;8.328;2022-07-03T12:51:39;32.40;50.70
7032;DHT22;3557;48.880;8.328;2022-07-03T12:54:09;32.20;49.70
7032;DHT22;3557;48.880;8.328;2022-07-03T12:56:38;32.00;51.90
7032;DHT22;3557;48.880;8.328;2022-07-03T12:59:05;32.20;50.50
7032;DHT22;3557;48.880;8.328;2022-07-03T13:01:44;31.90;52.10
7032;DHT22;3557;48.880;8.328;2022-07-03T13:04:12;31.70;51.90
7032;DHT22;3557;48.880;8.328;2022-07-03T13:06:41;32.20;50.80
7032;DHT22;3557;48.880;8.328;2022-07-03T13:09:11;32.70;49.90
7032;DHT22;3557;48.880;8.328;2022-07-03T13:11:41;32.90;50.00
7032;DHT22;3557;48.880;8.328;2022-07-03T13:14:10;33.20;47.70
7032;DHT22;3557;48.880;8.328;2022-07-03T13:16:40;33.40;49.50
7032;DHT22;3557;48.880;8.328;2022-07-03T13:19:10;33.80;49.70
7032;DHT22;3557;48.880;8.328;2022-07-03T13:21:38;33.20;49.10
7032;DHT22;3557;48.880;8.328;2022-07-03T13:24:06;33.00;50.00
7032;DHT22;3557;48.880;8.328;2022-07-03T13:26:34;32.70;49.60
7032;DHT22;3557;48.880;8.328;2022-07-03T13:29:03;33.00;50.10
7032;DHT22;3557;48.880;8.328;2022-07-03T13:31:31;33.00;51.20
7032;DHT22;3557;48.880;8.328;2022-07-03T13:33:58;33.30;50.60
7032;DHT22;3557;48.880;8.328;2022-07-03T13:36:26;34.00;50.30
7032;DHT22;3557;48.880;8.328;2022-07-03T13:41:21;34.00;49.00
7032;DHT22;3557;48.880;8.328;2022-07-03T13:43:48;34.40;49.70
7032;DHT22;3557;48.880;8.328;2022-07-03T13:46:18;34.00;50.50
7032;DHT22;3557;48.880;8.328;2022-07-03T13:48:47;34.30;50.30
7032;DHT22;3557;48.880;8.328;2022-07-03T13:53:42;34.70;47.10
7032;DHT22;3557;48.880;8.328;2022-07-03T13:58:36;34.40;49.70
7032;DHT22;3557;48.880;8.328;2022-07-03T14:01:03;34.00;49.00
7032;DHT22;3557;48.880;8.328;2022-07-03T14:03:31;33.70;50.80
7032;DHT22;3557;48.880;8.328;2022-07-03T14:05:59;33.30;50.10
7032;DHT22;3557;48.880;8.328;2022-07-03T14:08:26;33.00;52.80
7032;DHT22;3557;48.880;8.328;2022-07-03T14:10:53;32.80;52.50
7032;DHT22;3557;48.880;8.328;2022-07-03T14:13:20;33.30;53.00
7032;DHT22;3557;48.880;8.328;2022-07-03T14:15:47;33.10;51.70
7032;DHT22;3557;48.880;8.328;2022-07-03T14:20:42;33.30;51.10
7032;DHT22;3557;48.880;8.328;2022-07-03T14:23:09;33.40;51.50
7032;DHT22;3557;48.880;8.328;2022-07-03T14:25:37;33.00;51.50
7032;DHT22;3557;48.880;8.328;2022-07-03T14:28:04;32.60;53.30
7032;DHT22;3557;48.880;8.328;2022-07-03T14:30:48;32.80;53.60
7032;DHT22;3557;48.880;8.328;2022-07-03T14:36:02;32.60;53.80
7032;DHT22;3557;48.880;8.328;2022-07-03T14:38:29;33.00;53.90
7032;DHT22;3557;48.880;8.328;2022-07-03T14:40:56;33.00;52.50
7032;DHT22;3557;48.880;8.328;2022-07-03T14:43:23;32.90;51.30
7032;DHT22;3557;48.880;8.328;2022-07-03T14:45:50;33.50;52.00
7032;DHT22;3557;48.880;8.328;2022-07-03T14:53:13;33.30;52.60
7032;DHT22;3557;48.880;8.328;2022-07-03T14:55:40;32.90;51.20
7032;DHT22;3557;48.880;8.328;2022-07-03T14:58:16;32.90;52.00
7032;DHT22;3557;48.880;8.328;2022-07-03T15:00:48;32.80;52.20
7032;DHT22;3557;48.880;8.328;2022-07-03T15:03:18;33.10;52.20
7032;DHT22;3557;48.880;8.328;2022-07-03T15:05:47;33.20;50.70
7032;DHT22;3557;48.880;8.328;2022-07-03T15:08:29;33.40;51.60
7032;DHT22;3557;48.880;8.328;2022-07-03T15:11:14;33.70;50.30
7032;DHT22;3557;48.880;8.328;2022-07-03T15:14:04;33.90;51.80
7032;DHT22;3557;48.880;8.328;2022-07-03T15:16:32;34.40;48.90
7032;DHT22;3557;48.880;8.328;2022-07-03T15:19:00;34.10;47.80
7032;DHT22;3557;48.880;8.328;2022-07-03T15:21:29;33.40;48.40
7032;DHT22;3557;48.880;8.328;2022-07-03T15:24:00;32.90;49.40
7032;DHT22;3557;48.880;8.328;2022-07-03T15:26:29;33.10;50.80
7032;DHT22;3557;48.880;8.328;2022-07-03T15:28:58;33.60;48.00
7032;DHT22;3557;48.880;8.328;2022-07-03T15:31:28;33.40;49.70
7032;DHT22;3557;48.880;8.328;2022-07-03T15:33:55;33.40;49.50
7032;DHT22;3557;48.880;8.328;2022-07-03T15:36:26;33.50;49.10
7032;DHT22;3557;48.880;8.328;2022-07-03T15:39:02;33.40;48.40
7032;DHT22;3557;48.880;8.328;2022-07-03T15:41:39;33.20;49.40
7032;DHT22;3557;48.880;8.328;2022-07-03T15:44:20;33.70;50.70
7032;DHT22;3557;48.880;8.328;2022-07-03T15:46:59;33.30;49.30
7032;DHT22;3557;48.880;8.328;2022-07-03T15:49:35;32.90;50.20
7032;DHT22;3557;48.880;8.328;2022-07-03T15:52:10;32.90;49.10
7032;DHT22;3557;48.880;8.328;2022-07-03T15:54:52;32.20;50.00
7032;DHT22;3557;48.880;8.328;2022-07-03T15:57:26;31.90;51.10
7032;DHT22;3557;48.880;8.328;2022-07-03T15:59:59;32.10;51.20
7032;DHT22;3557;48.880;8.328;2022-07-03T16:02:36;32.60;51.00
7032;DHT22;3557;48.880;8.328;2022-07-03T16:05:24;33.10;49.70
7032;DHT22;3557;48.880;8.328;2022-07-03T16:07:53;33.50;48.80
7032;DHT22;3557;48.880;8.328;2022-07-03T16:10:22;33.00;49.70
7032;DHT22;3557;48.880;8.328;2022-07-03T16:12:49;33.30;50.60
7032;DHT22;3557;48.880;8.328;2022-07-03T16:15:19;33.80;48.60
7032;DHT22;3557;48.880;8.328;2022-07-03T16:17:47;33.50;48.90
7032;DHT22;3557;48.880;8.328;2022-07-03T16:20:19;33.70;49.20
7032;DHT22;3557;48.880;8.328;2022-07-03T16:22:47;34.20;50.00
7032;DHT22;3557;48.880;8.328;2022-07-03T16:25:14;34.10;48.40
7032;DHT22;3557;48.880;8.328;2022-07-03T16:27:43;34.10;48.20
7032;DHT22;3557;48.880;8.328;2022-07-03T16:30:11;34.20;47.00
7032;DHT22;3557;48.880;8.328;2022-07-03T16:32:40;33.80;49.00
7032;DHT22;3557;48.880;8.328;2022-07-03T16:35:10;33.90;49.60
7032;DHT22;3557;48.880;8.328;2022-07-03T16:37:45;33.90;49.50
7032;DHT22;3557;48.880;8.328;2022-07-03T16:40:17;34.00;49.20
7032;DHT22;3557;48.880;8.328;2022-07-03T16:42:47;34.20;49.20
7032;DHT22;3557;48.880;8.328;2022-07-03T16:45:15;34.80;48.80
7032;DHT22;3557;48.880;8.328;2022-07-03T16:47:46;34.50;48.00
7032;DHT22;3557;48.880;8.328;2022-07-03T16:50:16;34.50;48.70
7032;DHT22;3557;48.880;8.328;2022-07-03T16:52:45;34.50;48.70
7032;DHT22;3557;48.880;8.328;2022-07-03T16:55:13;34.60;47.90
7032;DHT22;3557;48.880;8.328;2022-07-03T16:57:43;34.80;47.30
7032;DHT22;3557;48.880;8.328;2022-07-03T17:00:16;35.10;48.20
7032;DHT22;3557;48.880;8.328;2022-07-03T17:02:45;34.80;48.50
7032;DHT22;3557;48.880;8.328;2022-07-03T17:05:16;34.40;47.80
7032;DHT22;3557;48.880;8.328;2022-07-03T17:07:46;34.40;46.70
7032;DHT22;3557;48.880;8.328;2022-07-03T17:10:15;34.10;48.10
7032;DHT22;3557;48.880;8.328;2022-07-03T17:12:44;33.60;48.60
7032;DHT22;3557;48.880;8.328;2022-07-03T17:15:17;33.50;50.50
7032;DHT22;3557;48.880;8.328;2022-07-03T17:17:48;33.60;49.80
7032;DHT22;3557;48.880;8.328;2022-07-03T17:20:19;33.40;49.00
7032;DHT22;3557;48.880;8.328;2022-07-03T17:22:49;33.30;49.80
7032;DHT22;3557;48.880;8.328;2022-07-03T17:25:21;33.60;50.60
7032;DHT22;3557;48.880;8.328;2022-07-03T17:27:56;33.90;50.50
7032;DHT22;3557;48.880;8.328;2022-07-03T17:30:33;33.90;49.10
7032;DHT22;3557;48.880;8.328;2022-07-03T17:33:03;33.90;48.90
7032;DHT22;3557;48.880;8.328;2022-07-03T17:35:34;33.90;49.30
7032;DHT22;3557;48.880;8.328;2022-07-03T17:38:07;33.70;50.60
7032;DHT22;3557;48.880;8.328;2022-07-03T17:40:37;33.60;50.10
7032;DHT22;3557;48.880;8.328;2022-07-03T17:43:07;33.60;49.10
7032;DHT22;3557;48.880;8.328;2022-07-03T17:45:35;33.90;49.90
7032;DHT22;3557;48.880;8.328;2022-07-03T17:48:03;34.30;49.80
7032;DHT22;3557;48.880;8.328;2022-07-03T17:52:59;34.90;48.50
7032;DHT22;3557;48.880;8.328;2022-07-03T17:55:27;34.70;48.50
7032;DHT22;3557;48.880;8.328;2022-07-03T18:00:25;33.80;49.00
7032;DHT22;3557;48.880;8.328;2022-07-03T18:02:54;33.80;49.90
7032;DHT22;3557;48.880;8.328;2022-07-03T18:05:21;33.90;51.10
7032;DHT22;3557;48.880;8.328;2022-07-03T18:07:56;34.00;50.40
7032;DHT22;3557;48.880;8.328;2022-07-03T18:10:31;33.90;49.40
7032;DHT22;3557;48.880;8.328;2022-07-03T18:13:06;34.00;49.20
7032;DHT22;3557;48.880;8.328;2022-07-03T18:15:39;34.00;49.50
7032;DHT22;3557;48.880;8.328;2022-07-03T18:18:13;34.10;49.20
7032;DHT22;3557;48.880;8.328;2022-07-03T18:20:43;33.90;49.40
7032;DHT22;3557;48.880;8.328;2022-07-03T18:23:15;33.90;49.30
7032;DHT22;3557;48.880;8.328;2022-07-03T18:25:44;33.90;49.40
7032;DHT22;3557;48.880;8.328;2022-07-03T18:28:13;34.00;50.40
7032;DHT22;3557;48.880;8.328;2022-07-03T18:30:43;34.00;51.10
7032;DHT22;3557;48.880;8.328;2022-07-03T18:33:11;34.20;51.00
7032;DHT22;3557;48.880;8.328;2022-07-03T18:35:39;33.90;50.80
7032;DHT22;3557;48.880;8.328;2022-07-03T18:38:09;33.50;50.90
7032;DHT22;3557;48.880;8.328;2022-07-03T18:40:38;33.20;51.30
7032;DHT22;3557;48.880;8.328;2022-07-03T18:45:37;32.20;52.80
7032;DHT22;3557;48.880;8.328;2022-07-03T18:48:06;31.50;54.30